Time;durP1;ratioP1;P1;durP2;ratioP2;P2;SDS_P1;SDS_P2;PMS_P1;PMS_P2;Temp;Humidity;BMP_temperature;BMP_pressure;BME280_temperature;BME280_humidity;BME280_pressure;Samples;Min_cycle;Max_cycle;Signal;HPM_P1;HPM_P2
2022/10/21 00:00:52;;;;;;;37.85;28.23;;;11.90;99.90;;;;;;5061053;28;20491;-77
2022/10/21 00:03:19;;;;;;;37.90;27.83;;;11.90;99.90;;;;;;5059650;28;20037;-77
2022/10/21 00:05:45;;;;;;;34.75;28.15;;;11.90;99.90;;;;;;5064855;28;20040;-76
2022/10/21 00:08:11;;;;;;;32.08;26.23;;;11.90;99.90;;;;;;5059834;28;20039;-75
2022/10/21 00:10:36;;;;;;;36.40;29.05;;;11.90;99.90;;;;;;5056185;28;20044;-75
2022/10/21 00:13:02;;;;;;;34.65;27.27;;;11.90;99.90;;;;;;5039303;28;20052;-76
2022/10/21 00:15:28;;;;;;;31.77;28.00;;;11.90;99.90;;;;;;5062663;28;20107;-77
2022/10/21 00:17:53;;;;;;;33.70;28.17;;;11.90;99.90;;;;;;5056494;28;20080;-74
2022/10/21 00:20:19;;;;;;;32.13;27.23;;;11.80;99.90;;;;;;5063354;28;20028;-74
2022/10/21 00:22:45;;;;;;;35.45;28.75;;;11.90;99.90;;;;;;5041916;28;20381;-75
2022/10/21 00:25:11;;;;;;;35.85;27.60;;;11.90;99.90;;;;;;5064265;28;20056;-74
2022/10/21 00:27:37;;;;;;;36.13;27.35;;;11.90;99.90;;;;;;5059382;28;20115;-75
2022/10/21 00:30:05;;;;;;;32.90;26.92;;;11.90;99.90;;;;;;5063356;28;20369;-74
2022/10/21 00:32:31;;;;;;;33.67;27.52;;;11.90;99.90;;;;;;5058245;28;20040;-75
2022/10/21 00:34:56;;;;;;;32.30;27.52;;;11.90;99.90;;;;;;5063345;28;20427;-74
2022/10/21 00:37:22;;;;;;;33.85;28.25;;;11.80;99.90;;;;;;5064427;28;20040;-74
2022/10/21 00:39:47;;;;;;;32.70;27.10;;;11.80;99.90;;;;;;5066639;28;20064;-74
2022/10/21 00:42:17;;;;;;;39.08;27.98;;;11.80;99.90;;;;;;5065506;28;20082;-74
2022/10/21 00:44:58;;;;;;;36.22;28.45;;;11.80;99.90;;;;;;5045731;28;20036;-74
2022/10/21 00:47:24;;;;;;;35.13;27.38;;;11.80;99.90;;;;;;5064123;28;20132;-74
2022/10/21 00:49:58;;;;;;;34.10;26.85;;;11.80;99.90;;;;;;5044849;28;20436;-74
2022/10/21 00:52:24;;;;;;;31.83;26.42;;;11.80;99.90;;;;;;5060539;28;20738;-74
2022/10/21 00:54:53;;;;;;;33.20;27.38;;;11.80;99.90;;;;;;5045774;28;20128;-74
2022/10/21 00:57:20;;;;;;;29.67;25.80;;;11.80;99.90;;;;;;5060018;28;20185;-74
2022/10/21 00:59:54;;;;;;;32.72;25.55;;;11.70;99.90;;;;;;5058783;28;20041;-74
2022/10/21 01:02:21;;;;;;;31.92;25.58;;;11.70;99.90;;;;;;5062067;28;20040;-74
2022/10/21 01:04:51;;;;;;;32.53;25.77;;;11.70;99.90;;;;;;5062774;28;20040;-74
2022/10/21 01:07:17;;;;;;;27.17;24.10;;;11.70;99.90;;;;;;5059305;28;20040;-74
2022/10/21 01:09:42;;;;;;;30.63;24.52;;;11.60;99.90;;;;;;5046107;28;20055;-74
2022/10/21 01:12:20;;;;;;;30.45;25.67;;;11.60;99.90;;;;;;5043081;28;20624;-74
2022/10/21 01:14:56;;;;;;;36.13;27.48;;;11.70;99.90;;;;;;5034256;28;20061;-74
2022/10/21 01:17:46;;;;;;;35.03;27.10;;;11.70;99.90;;;;;;5044506;28;20045;-74
2022/10/21 01:20:15;;;;;;;36.72;26.52;;;11.70;99.90;;;;;;5046473;28;20078;-74
2022/10/21 01:22:51;;;;;;;30.52;25.23;;;11.60;99.90;;;;;;5039053;28;20396;-74
2022/10/21 01:25:45;;;;;;;31.63;24.88;;;11.60;99.90;;;;;;5025286;28;20120;-74
2022/10/21 01:28:43;;;;;;;31.15;26.67;;;11.60;99.90;;;;;;5041880;28;20052;-74
2022/10/21 01:31:27;;;;;;;27.83;24.80;;;11.70;99.90;;;;;;5038347;28;20107;-74
2022/10/21 01:34:09;;;;;;;28.75;25.60;;;11.70;99.90;;;;;;5044427;28;20068;-74
2022/10/21 01:37:05;;;;;;;34.25;27.08;;;11.70;99.90;;;;;;5037179;28;20037;-74
2022/10/21 01:39:37;;;;;;;34.67;26.58;;;11.70;99.90;;;;;;5047093;28;20595;-74
2022/10/21 01:42:37;;;;;;;32.05;25.83;;;11.70;99.90;;;;;;5040204;28;20056;-74
2022/10/21 01:45:21;;;;;;;30.80;25.63;;;11.70;99.90;;;;;;5026299;28;20079;-74
2022/10/21 01:47:52;;;;;;;34.33;26.73;;;11.70;99.90;;;;;;5023350;28;20369;-74
2022/10/21 01:50:27;;;;;;;29.83;25.33;;;11.80;99.90;;;;;;5046184;28;20544;-74
2022/10/21 01:53:00;;;;;;;31.73;26.17;;;11.80;99.90;;;;;;5043830;28;20148;-74
2022/10/21 01:55:29;;;;;;;36.22;27.77;;;11.80;99.90;;;;;;5025462;28;20053;-74
2022/10/21 01:58:04;;;;;;;31.58;26.48;;;11.80;99.90;;;;;;5021650;28;20061;-74
2022/10/21 02:00:31;;;;;;;28.88;24.20;;;11.90;99.90;;;;;;5044265;28;20099;-73
2022/10/21 02:02:58;;;;;;;;;;;11.90;99.90;;;;;;5042726;28;22087;-75
2022/10/21 02:05:29;;;;;;;34.03;26.90;;;11.90;99.90;;;;;;5039789;28;20081;-74
2022/10/21 02:07:55;;;;;;;37.00;27.15;;;11.90;99.90;;;;;;5041876;28;20041;-74
2022/10/21 02:10:24;;;;;;;34.70;26.65;;;11.90;99.90;;;;;;5046115;28;20052;-73
2022/10/21 02:12:52;;;;;;;36.50;27.55;;;12.00;99.90;;;;;;5042112;28;20075;-74
2022/10/21 02:15:20;;;;;;;36.08;27.65;;;12.00;99.90;;;;;;5040652;28;20127;-75
2022/10/21 02:17:51;;;;;;;;;;;12.00;99.90;;;;;;5063248;28;20067;-74
2022/10/21 02:20:18;;;;;;;35.67;27.58;;;12.00;99.90;;;;;;5068982;28;20287;-74
2022/10/21 02:22:46;;;;;;;39.83;26.75;;;12.00;99.90;;;;;;5042713;28;20076;-74
2022/10/21 02:25:22;;;;;;;39.28;27.02;;;12.00;99.90;;;;;;5048796;28;20446;-74
2022/10/21 02:27:48;;;;;;;31.60;25.63;;;12.00;99.90;;;;;;5044885;28;20396;-75
2022/10/21 02:30:14;;;;;;;36.03;26.80;;;12.00;99.90;;;;;;5061461;28;20044;-75
2022/10/21 02:32:48;;;;;;;39.67;28.80;;;12.10;99.90;;;;;;5062119;28;20632;-74
2022/10/21 02:35:29;;;;;;;37.47;27.45;;;12.10;99.90;;;;;;5060861;28;20051;-74
2022/10/21 02:38:13;;;;;;;41.70;28.73;;;12.10;99.90;;;;;;5050616;28;20414;-74
2022/10/21 02:40:48;;;;;;;34.75;27.60;;;12.10;99.90;;;;;;5041331;28;20771;-75
2022/10/21 02:43:46;;;;;;;42.65;29.95;;;12.10;99.90;;;;;;5050291;28;20051;-77
2022/10/21 02:46:13;;;;;;;42.00;30.17;;;12.10;99.90;;;;;;5058419;28;20044;-75
2022/10/21 02:48:42;;;;;;;44.15;30.88;;;12.10;99.90;;;;;;5048203;28;20040;-75
2022/10/21 02:51:08;;;;;;;36.47;28.38;;;12.20;99.90;;;;;;5047152;28;20048;-77
2022/10/21 02:53:34;;;;;;;45.33;31.95;;;12.20;99.90;;;;;;5061154;28;20067;-75
2022/10/21 02:56:00;;;;;;;38.60;29.27;;;12.20;99.90;;;;;;5045022;28;20048;-76
2022/10/21 02:58:26;;;;;;;44.90;30.63;;;12.20;99.90;;;;;;5066711;28;20040;-76
2022/10/21 03:00:52;;;;;;;38.67;28.17;;;12.20;99.90;;;;;;5063724;28;20047;-77
2022/10/21 03:03:17;;;;;;;36.63;28.30;;;12.10;99.90;;;;;;5064770;28;20078;-77
2022/10/21 03:05:43;;;;;;;41.83;30.33;;;12.20;99.90;;;;;;5063273;28;20107;-75
2022/10/21 03:08:09;;;;;;;37.83;29.60;;;12.20;99.90;;;;;;5062545;28;20041;-75
2022/10/21 03:10:34;;;;;;;43.55;30.83;;;12.20;99.90;;;;;;5061686;28;20050;-77
2022/10/21 03:13:00;;;;;;;42.05;29.30;;;12.20;99.90;;;;;;5054917;28;20039;-76
2022/10/21 03:15:26;;;;;;;38.00;28.17;;;12.10;99.90;;;;;;5062329;28;20048;-76
2022/10/21 03:17:52;;;;;;;34.58;26.85;;;12.20;99.90;;;;;;5044141;28;20659;-76
2022/10/21 03:20:17;;;;;;;31.15;26.33;;;12.20;99.90;;;;;;5044106;28;20097;-77
2022/10/21 03:22:43;;;;;;;36.10;26.25;;;12.20;99.90;;;;;;5057460;28;20048;-76
2022/10/21 03:25:10;;;;;;;31.95;26.02;;;12.10;99.90;;;;;;5056000;28;20468;-75
2022/10/21 03:27:36;;;;;;;30.85;25.33;;;12.10;99.90;;;;;;5044695;28;20048;-76
2022/10/21 03:30:04;;;;;;;35.70;27.35;;;12.10;99.90;;;;;;5059101;28;20462;-76
2022/10/21 03:32:29;;;;;;;33.85;26.25;;;12.10;99.90;;;;;;5061720;28;20128;-75
2022/10/21 03:34:55;;;;;;;34.47;25.85;;;12.10;99.90;;;;;;5054709;28;20048;-77
2022/10/21 03:37:21;;;;;;;32.03;25.70;;;12.10;99.90;;;;;;5062194;28;20048;-77
2022/10/21 03:39:47;;;;;;;33.22;25.90;;;12.00;99.90;;;;;;5047057;28;20064;-77
2022/10/21 03:42:12;;;;;;;36.40;27.00;;;12.00;99.90;;;;;;5041240;28;20056;-77
2022/10/21 03:44:38;;;;;;;33.20;26.35;;;12.00;99.90;;;;;;5063632;28;20044;-75
2022/10/21 03:47:04;;;;;;;32.22;25.33;;;12.00;99.90;;;;;;5043823;28;20442;-76
2022/10/21 03:49:29;;;;;;;31.50;25.38;;;12.00;99.90;;;;;;5037272;28;20472;-76
2022/10/21 03:51:55;;;;;;;36.53;27.20;;;12.00;99.90;;;;;;5060717;28;20052;-76
2022/10/21 03:54:20;;;;;;;34.70;26.42;;;12.00;99.90;;;;;;5061872;28;20047;-76
2022/10/21 03:56:46;;;;;;;33.90;25.80;;;12.00;99.90;;;;;;5056662;28;20404;-77
2022/10/21 03:59:12;;;;;;;35.85;27.60;;;12.00;99.90;;;;;;5044278;28;20392;-75
2022/10/21 04:01:37;;;;;;;36.42;27.27;;;12.00;99.90;;;;;;5061847;28;20045;-76
2022/10/21 04:04:03;;;;;;;39.63;27.88;;;12.00;99.90;;;;;;5058281;28;20055;-77
2022/10/21 04:06:29;;;;;;;31.08;25.80;;;12.00;99.90;;;;;;5059203;28;20044;-77
2022/10/21 04:08:55;;;;;;;39.05;28.75;;;12.00;99.90;;;;;;5058092;28;20095;-77
2022/10/21 04:11:20;;;;;;;32.00;25.88;;;12.10;99.90;;;;;;5065901;28;20032;-76
2022/10/21 04:13:46;;;;;;;36.47;26.98;;;12.10;99.90;;;;;;5061355;28;20506;-74
2022/10/21 04:16:15;;;;;;;39.05;27.58;;;12.10;99.90;;;;;;5045644;28;20058;-76
2022/10/21 04:18:41;;;;;;;32.85;25.92;;;12.00;99.90;;;;;;5064342;28;20484;-76
2022/10/21 04:21:07;;;;;;;38.42;28.05;;;12.10;99.90;;;;;;5062537;28;20075;-77
2022/10/21 04:23:33;;;;;;;33.83;26.48;;;12.10;99.90;;;;;;5043755;28;20074;-77
2022/10/21 04:25:59;;;;;;;39.28;27.13;;;12.10;99.90;;;;;;5056237;28;20491;-78
2022/10/21 04:28:25;;;;;;;38.00;27.50;;;12.10;99.90;;;;;;5058653;28;20044;-75
2022/10/21 04:30:50;;;;;;;34.90;27.42;;;12.10;99.90;;;;;;5061543;28;20120;-77
2022/10/21 04:33:16;;;;;;;36.13;25.35;;;12.10;99.90;;;;;;5060774;28;20079;-76
2022/10/21 04:35:42;;;;;;;38.05;27.30;;;12.10;99.90;;;;;;5061497;28;20068;-77
2022/10/21 04:38:07;;;;;;;34.80;27.38;;;12.10;99.90;;;;;;5059684;28;20049;-77
2022/10/21 04:40:33;;;;;;;34.47;25.80;;;12.20;99.90;;;;;;5064852;28;20048;-76
2022/10/21 04:42:59;;;;;;;32.28;26.30;;;12.10;99.90;;;;;;5056793;28;20711;-76
2022/10/21 04:45:25;;;;;;;35.22;26.50;;;12.00;99.90;;;;;;5061423;28;20048;-75
2022/10/21 04:47:50;;;;;;;31.25;24.85;;;12.10;99.90;;;;;;5061067;28;20095;-76
2022/10/21 04:50:16;;;;;;;35.70;26.20;;;12.10;99.90;;;;;;5061446;28;20433;-77
2022/10/21 04:52:42;;;;;;;34.05;24.17;;;12.10;99.90;;;;;;5058003;28;20325;-76
2022/10/21 04:55:08;;;;;;;36.20;25.00;;;12.10;99.90;;;;;;5063062;28;20051;-77
2022/10/21 04:57:33;;;;;;;33.90;24.10;;;12.10;99.90;;;;;;5060525;28;20048;-75
2022/10/21 05:00:00;;;;;;;31.17;24.55;;;12.00;99.90;;;;;;5058580;28;20045;-77
2022/10/21 05:02:26;;;;;;;34.77;25.30;;;12.10;99.90;;;;;;5059984;28;20037;-77
2022/10/21 05:04:51;;;;;;;29.80;23.27;;;12.10;99.90;;;;;;5060959;28;20120;-76
2022/10/21 05:07:17;;;;;;;31.35;23.52;;;12.00;99.90;;;;;;5059056;28;20052;-76
2022/10/21 05:09:43;;;;;;;33.10;25.10;;;12.00;99.90;;;;;;5041801;28;20040;-76
2022/10/21 05:12:08;;;;;;;30.15;22.63;;;12.00;99.90;;;;;;5060824;28;20049;-75
2022/10/21 05:14:34;;;;;;;42.90;26.88;;;12.00;99.90;;;;;;5057882;28;20052;-76
2022/10/21 05:17:00;;;;;;;40.08;27.17;;;12.00;99.90;;;;;;5060903;28;20044;-76
2022/10/21 05:19:26;;;;;;;34.80;26.38;;;12.00;99.90;;;;;;5062537;28;20039;-75
2022/10/21 05:21:51;;;;;;;33.25;24.95;;;12.00;99.90;;;;;;5041757;28;20055;-76
2022/10/21 05:24:17;;;;;;;39.92;26.15;;;12.00;99.90;;;;;;5067305;28;20543;-74
2022/10/21 05:26:42;;;;;;;31.77;23.75;;;11.90;99.90;;;;;;5044473;28;20075;-75
2022/10/21 05:29:08;;;;;;;28.58;22.80;;;12.00;99.90;;;;;;5047772;28;20384;-75
2022/10/21 05:31:34;;;;;;;35.80;24.67;;;12.00;99.90;;;;;;5045843;28;20522;-74
2022/10/21 05:34:00;;;;;;;32.38;25.20;;;11.90;99.90;;;;;;5055945;28;20037;-74
2022/10/21 05:36:26;;;;;;;31.95;23.52;;;11.90;99.90;;;;;;5061737;28;20040;-74
2022/10/21 05:38:52;;;;;;;32.75;24.20;;;11.90;99.90;;;;;;5069018;28;20040;-75
2022/10/21 05:41:18;;;;;;;28.95;22.60;;;11.80;99.90;;;;;;5040992;28;20230;-74
2022/10/21 05:43:44;;;;;;;28.38;23.63;;;11.80;99.90;;;;;;5058452;28;20040;-74
2022/10/21 05:46:10;;;;;;;25.27;22.42;;;11.80;99.90;;;;;;5060802;28;20044;-74
2022/10/21 05:48:36;;;;;;;30.63;22.73;;;11.80;99.90;;;;;;5043985;28;20669;-75
2022/10/21 05:51:03;;;;;;;30.05;23.90;;;11.80;99.90;;;;;;5068108;28;20052;-75
2022/10/21 05:53:29;;;;;;;30.20;24.13;;;11.80;99.90;;;;;;5047437;28;20089;-75
2022/10/21 05:56:00;;;;;;;25.63;21.08;;;11.70;99.90;;;;;;5048846;28;20399;-75
2022/10/21 05:58:27;;;;;;;27.90;21.42;;;11.70;99.90;;;;;;5042420;28;22057;-74
2022/10/21 06:00:53;;;;;;;29.05;22.27;;;11.70;99.90;;;;;;5045593;28;20106;-74
2022/10/21 06:03:31;;;;;;;27.08;20.67;;;11.60;99.90;;;;;;5063702;28;20040;-73
2022/10/21 06:06:03;;;;;;;29.27;21.15;;;11.60;99.90;;;;;;5064595;28;20492;-74
2022/10/21 06:08:31;;;;;;;28.45;22.38;;;11.60;99.90;;;;;;5056410;28;20105;-74
2022/10/21 06:11:05;;;;;;;33.42;23.35;;;11.60;99.90;;;;;;5044816;28;20147;-74
2022/10/21 06:13:31;;;;;;;23.52;19.05;;;11.50;99.90;;;;;;5042532;28;20048;-73
2022/10/21 06:15:57;;;;;;;27.52;21.85;;;11.50;99.90;;;;;;5065110;28;20072;-74
2022/10/21 06:18:24;;;;;;;26.17;20.98;;;11.50;99.90;;;;;;5043237;28;20056;-74
2022/10/21 06:20:50;;;;;;;25.15;21.92;;;11.50;99.90;;;;;;5060964;28;20569;-74
2022/10/21 06:23:16;;;;;;;24.88;21.55;;;11.50;99.90;;;;;;5050477;28;20052;-74
2022/10/21 06:25:52;;;;;;;33.00;22.98;;;11.50;99.90;;;;;;5047081;28;20139;-74
2022/10/21 06:28:18;;;;;;;31.25;23.73;;;11.50;99.90;;;;;;5043995;28;20044;-74
2022/10/21 06:30:44;;;;;;;32.90;25.20;;;11.50;99.90;;;;;;5041005;28;20056;-74
2022/10/21 06:33:09;;;;;;;36.05;25.40;;;11.50;99.90;;;;;;5046174;28;20047;-74
2022/10/21 06:35:35;;;;;;;39.67;26.60;;;11.60;99.90;;;;;;5048070;28;20408;-74
2022/10/21 06:38:01;;;;;;;36.20;25.92;;;11.60;99.90;;;;;;5064346;28;20068;-74
2022/10/21 06:40:26;;;;;;;38.08;26.52;;;11.60;99.90;;;;;;5063637;28;20040;-74
2022/10/21 06:42:52;;;;;;;33.83;26.20;;;11.60;99.90;;;;;;5046961;28;20086;-74
2022/10/21 06:45:18;;;;;;;30.95;24.48;;;11.60;99.90;;;;;;5061818;28;20053;-73
2022/10/21 06:47:44;;;;;;;31.02;25.08;;;11.70;99.90;;;;;;5045211;28;20102;-74
2022/10/21 06:50:12;;;;;;;34.15;25.75;;;11.70;99.90;;;;;;5062916;28;20076;-73
2022/10/21 06:52:37;;;;;;;30.92;25.58;;;11.70;99.90;;;;;;5063865;28;20033;-74
2022/10/21 06:55:04;;;;;;;31.88;24.52;;;11.70;99.90;;;;;;5065762;28;20040;-75
2022/10/21 06:57:30;;;;;;;32.83;24.10;;;11.80;99.90;;;;;;5040559;28;20126;-76
2022/10/21 06:59:55;;;;;;;34.25;24.88;;;11.80;99.90;;;;;;5047164;28;20132;-75
2022/10/21 07:02:23;;;;;;;31.00;24.75;;;11.80;99.90;;;;;;5058248;28;20036;-74
2022/10/21 07:04:48;;;;;;;31.15;25.05;;;11.90;99.90;;;;;;5045143;28;20048;-75
2022/10/21 07:07:15;;;;;;;32.05;24.48;;;11.90;99.90;;;;;;5045660;28;20801;-79
2022/10/21 07:09:40;;;;;;;32.93;25.07;;;11.90;99.90;;;;;;5047979;28;20094;-75
2022/10/21 07:12:06;;;;;;;35.30;25.50;;;11.90;99.90;;;;;;5049973;28;20040;-76
2022/10/21 07:14:32;;;;;;;32.40;25.30;;;12.00;99.90;;;;;;5035246;28;20057;-79
2022/10/21 07:16:57;;;;;;;31.95;25.40;;;12.00;99.90;;;;;;5045496;28;20532;-78
2022/10/21 07:19:23;;;;;;;35.70;26.70;;;12.10;99.90;;;;;;5042345;28;20520;-78
2022/10/21 07:21:48;;;;;;;39.25;27.80;;;12.10;99.90;;;;;;5044336;28;20396;-76
2022/10/21 07:24:14;;;;;;;32.67;25.48;;;12.20;99.90;;;;;;5043026;28;20051;-75
2022/10/21 07:26:40;;;;;;;37.22;27.83;;;12.30;99.90;;;;;;5022367;28;20590;-76
2022/10/21 07:29:06;;;;;;;35.90;26.60;;;12.30;99.90;;;;;;5029929;28;20508;-78
2022/10/21 07:31:35;;;;;;;33.42;26.38;;;12.30;99.90;;;;;;5044751;28;20044;-75
2022/10/21 07:34:01;;;;;;;36.70;26.63;;;12.40;99.90;;;;;;5049705;28;20037;-76
2022/10/21 07:36:30;;;;;;;42.72;28.90;;;12.50;99.90;;;;;;5026717;28;20063;-75
2022/10/21 07:38:59;;;;;;;37.47;28.08;;;12.50;99.90;;;;;;5040702;28;20048;-76
2022/10/21 07:41:28;;;;;;;35.83;26.88;;;12.60;99.90;;;;;;5042311;28;20045;-75
2022/10/21 07:43:54;;;;;;;33.88;26.63;;;12.60;99.90;;;;;;5029001;28;20051;-76
2022/10/21 07:46:21;;;;;;;34.38;26.98;;;12.70;99.90;;;;;;5027357;28;20396;-76
2022/10/21 07:48:47;;;;;;;34.63;26.80;;;12.80;99.90;;;;;;5042372;28;20048;-76
2022/10/21 07:51:15;;;;;;;35.35;27.05;;;12.80;99.90;;;;;;5023919;28;20554;-77
2022/10/21 07:53:40;;;;;;;34.20;25.73;;;12.90;99.90;;;;;;5029962;28;20151;-76
2022/10/21 07:56:15;;;;;;;37.90;26.40;;;12.90;99.90;;;;;;5046156;28;20568;-76
2022/10/21 07:58:42;;;;;;;33.67;25.90;;;13.00;99.90;;;;;;5023327;28;20084;-76
2022/10/21 08:01:09;;;;;;;32.03;25.55;;;13.00;99.90;;;;;;5025660;28;20396;-75
2022/10/21 08:03:35;;;;;;;35.95;25.90;;;13.10;99.90;;;;;;5038476;28;20063;-75
2022/10/21 08:06:01;;;;;;;34.20;27.38;;;13.20;99.90;;;;;;5021655;28;20040;-76
2022/10/21 08:08:27;;;;;;;32.55;26.08;;;13.30;99.90;;;;;;5043996;28;20045;-76
2022/10/21 08:10:54;;;;;;;36.10;26.42;;;13.30;99.90;;;;;;5056426;28;20098;-70
2022/10/21 08:13:20;;;;;;;29.10;23.17;;;13.40;99.90;;;;;;5044535;28;20045;-75
2022/10/21 08:15:51;;;;;;;34.78;25.05;;;13.40;99.90;;;;;;5065121;28;20052;-74
2022/10/21 08:18:17;;;;;;;33.90;25.02;;;13.50;99.90;;;;;;5064060;28;20558;-73
2022/10/21 08:20:45;;;;;;;32.05;24.33;;;13.40;99.90;;;;;;5064933;28;20041;-77
2022/10/21 08:23:12;;;;;;;31.55;24.55;;;13.50;99.90;;;;;;5041953;28;20040;-77
2022/10/21 08:25:39;;;;;;;28.85;23.80;;;13.50;99.90;;;;;;5060730;28;20068;-76
2022/10/21 08:28:05;;;;;;;32.03;23.88;;;13.50;99.90;;;;;;5044489;28;20044;-77
2022/10/21 08:30:31;;;;;;;29.77;23.23;;;13.50;99.90;;;;;;5056599;28;20238;-83
2022/10/21 08:32:58;;;;;;;31.05;22.80;;;13.50;99.90;;;;;;5059208;28;20073;-79
2022/10/21 08:35:25;;;;;;;33.20;22.70;;;13.50;99.90;;;;;;5060681;28;20040;-79
2022/10/21 08:37:51;;;;;;;32.28;22.48;;;13.60;99.90;;;;;;5045146;28;20055;-79
2022/10/21 08:40:17;;;;;;;30.77;21.67;;;13.60;99.90;;;;;;5048867;28;20040;-79
2022/10/21 08:42:44;;;;;;;28.35;21.10;;;13.60;99.90;;;;;;5066197;28;20561;-79
2022/10/21 08:45:30;;;;;;;30.05;22.98;;;13.60;99.90;;;;;;5059891;28;20036;-81
2022/10/21 08:48:02;;;;;;;29.90;21.73;;;13.70;99.90;;;;;;5036632;28;20056;-81
2022/10/21 08:50:34;;;;;;;28.13;22.25;;;13.70;99.90;;;;;;5045237;28;20468;-83
2022/10/21 08:53:22;;;;;;;28.38;22.20;;;13.70;99.90;;;;;;5065151;28;20554;-84
2022/10/21 08:55:47;;;;;;;28.38;21.73;;;13.80;99.90;;;;;;5044479;28;20047;-81
2022/10/21 08:58:23;;;;;;;27.75;21.80;;;13.80;99.90;;;;;;5045809;28;20048;-78
2022/10/21 09:01:16;;;;;;;33.58;22.10;;;13.80;99.90;;;;;;5048908;28;20046;-78
2022/10/21 09:03:53;;;;;;;27.23;20.83;;;13.90;99.90;;;;;;5057219;28;20144;-78
2022/10/21 09:06:33;;;;;;;25.60;21.33;;;13.90;99.90;;;;;;5048646;28;20044;-78
2022/10/21 09:09:21;;;;;;;27.38;20.77;;;14.00;99.90;;;;;;5062247;28;20049;-78
2022/10/21 09:11:49;;;;;;;28.05;21.38;;;14.10;99.90;;;;;;5045753;28;20545;-77
2022/10/21 09:14:49;;;;;;;28.40;20.60;;;14.10;99.90;;;;;;5070296;28;20060;-77
2022/10/21 09:17:37;;;;;;;24.50;19.42;;;14.20;99.90;;;;;;5048791;28;20153;-78
2022/10/21 09:20:06;;;;;;;25.77;19.55;;;14.30;99.90;;;;;;5050926;28;20139;-75
2022/10/21 09:22:51;;;;;;;23.73;19.27;;;14.40;99.90;;;;;;5042490;28;20040;-75
2022/10/21 09:25:19;;;;;;;23.90;19.02;;;14.40;99.90;;;;;;5058754;28;20045;-75
2022/10/21 09:27:46;;;;;;;25.23;19.73;;;14.50;99.90;;;;;;5065033;28;20044;-75
2022/10/21 09:30:18;;;;;;;23.75;19.13;;;14.60;99.90;;;;;;5046965;28;20045;-75
2022/10/21 09:32:50;;;;;;;23.92;18.60;;;14.60;99.90;;;;;;5067513;28;20737;-75
2022/10/21 09:35:31;;;;;;;26.88;18.08;;;14.70;99.90;;;;;;5063757;28;20086;-75
2022/10/21 09:38:16;;;;;;;24.23;18.38;;;14.70;99.90;;;;;;5050852;28;20375;-75
2022/10/21 09:40:43;;;;;;;21.25;18.30;;;14.80;99.90;;;;;;5052050;28;20119;-75
2022/10/21 09:43:24;;;;;;;21.23;18.23;;;14.80;99.90;;;;;;5070402;28;20440;-75
2022/10/21 09:45:50;;;;;;;22.98;17.30;;;14.80;99.90;;;;;;5046978;28;20036;-75
2022/10/21 09:48:18;;;;;;;21.60;17.95;;;14.90;99.90;;;;;;5065048;28;20036;-75
2022/10/21 09:50:47;;;;;;;23.50;16.80;;;14.90;99.90;;;;;;5066816;28;20045;-75
2022/10/21 09:53:12;;;;;;;21.88;16.52;;;14.90;99.90;;;;;;5064132;28;20041;-76
2022/10/21 09:55:39;;;;;;;21.55;16.38;;;14.90;99.90;;;;;;5067647;28;20094;-76
2022/10/21 09:58:05;;;;;;;23.73;16.13;;;15.00;99.90;;;;;;5066509;28;20395;-75
2022/10/21 10:00:46;;;;;;;24.45;16.98;;;15.00;99.90;;;;;;5047869;28;20033;-75
2022/10/21 10:03:27;;;;;;;21.58;16.42;;;15.10;99.90;;;;;;5065326;28;20040;-77
2022/10/21 10:05:53;;;;;;;21.77;16.73;;;15.10;99.90;;;;;;5064883;28;20044;-75
2022/10/21 10:08:27;;;;;;;19.13;15.98;;;15.10;99.90;;;;;;5068585;28;20446;-76
2022/10/21 10:11:20;;;;;;;22.30;16.00;;;15.10;99.90;;;;;;5051656;28;20048;-75
2022/10/21 10:13:50;;;;;;;22.08;15.63;;;15.20;99.90;;;;;;5049178;28;20055;-74
2022/10/21 10:16:31;;;;;;;20.23;14.65;;;15.20;99.90;;;;;;5043210;28;20051;-75
2022/10/21 10:19:19;;;;;;;19.70;15.35;;;15.20;99.90;;;;;;5049483;28;20048;-73
2022/10/21 10:21:50;;;;;;;25.55;16.30;;;15.30;99.90;;;;;;5060088;28;20462;-77
2022/10/21 10:24:18;;;;;;;20.02;16.13;;;15.30;99.90;;;;;;5051123;28;20499;-73
2022/10/21 10:26:45;;;;;;;20.13;14.98;;;15.30;99.90;;;;;;5062431;28;20507;-75
2022/10/21 10:29:14;;;;;;;19.25;15.02;;;15.30;99.90;;;;;;5051143;28;20041;-75
2022/10/21 10:31:46;;;;;;;18.40;14.65;;;15.30;99.90;;;;;;5045357;28;20048;-74
2022/10/21 10:34:34;;;;;;;19.98;15.05;;;15.40;99.90;;;;;;5067291;28;20041;-74
2022/10/21 10:37:19;;;;;;;19.30;14.68;;;15.40;99.90;;;;;;5065940;28;20040;-74
2022/10/21 10:39:48;;;;;;;22.10;14.85;;;15.40;99.90;;;;;;5050179;28;20056;-74
2022/10/21 10:42:23;;;;;;;18.40;14.63;;;15.40;99.90;;;;;;5064074;28;20041;-74
2022/10/21 10:44:55;;;;;;;19.20;13.93;;;15.40;99.90;;;;;;5043480;28;20063;-75
2022/10/21 10:47:28;;;;;;;18.95;14.52;;;15.50;99.90;;;;;;5067586;28;20557;-76
2022/10/21 10:49:54;;;;;;;17.92;13.93;;;15.50;99.90;;;;;;5049360;28;20041;-79
2022/10/21 10:52:23;;;;;;;19.60;14.85;;;15.50;99.90;;;;;;5068694;28;20063;-79
2022/10/21 10:55:12;;;;;;;20.08;14.15;;;15.50;99.90;;;;;;5069770;28;20053;-75
2022/10/21 10:57:41;;;;;;;20.95;14.52;;;15.50;99.90;;;;;;5048232;28;20045;-76
2022/10/21 11:00:19;;;;;;;17.38;13.63;;;15.50;99.90;;;;;;5047898;28;20044;-79
2022/10/21 11:03:02;;;;;;;18.42;14.38;;;15.50;99.90;;;;;;5061486;28;20047;-76
2022/10/21 11:05:48;;;;;;;16.50;13.68;;;15.60;99.90;;;;;;5046489;28;20092;-79
2022/10/21 11:08:29;;;;;;;16.55;14.27;;;15.60;99.90;;;;;;5064436;28;20403;-76
2022/10/21 11:10:58;;;;;;;18.42;14.02;;;15.60;99.90;;;;;;5045136;28;20094;-75
2022/10/21 11:13:24;;;;;;;23.83;14.35;;;15.60;99.90;;;;;;5060916;28;20060;-75
2022/10/21 11:15:59;;;;;;;17.20;13.57;;;15.70;99.90;;;;;;5060724;28;20056;-72
2022/10/21 11:18:36;;;;;;;18.50;13.40;;;15.70;99.90;;;;;;5063903;28;20083;-72
2022/10/21 11:21:09;;;;;;;18.67;13.25;;;15.70;99.90;;;;;;5060554;28;20041;-72
2022/10/21 11:24:17;;;;;;;17.85;13.35;;;15.80;99.90;;;;;;5062734;28;20123;-73
2022/10/21 11:27:13;;;;;;;18.63;13.43;;;15.80;99.90;;;;;;5034656;28;20079;-72
2022/10/21 11:30:07;;;;;;;21.47;13.67;;;15.80;99.90;;;;;;5049032;28;20049;-73
2022/10/21 11:32:45;;;;;;;17.17;12.05;;;15.90;99.90;;;;;;5066579;28;20348;-72
2022/10/21 11:35:16;;;;;;;17.63;12.68;;;15.90;99.90;;;;;;5064273;28;20459;-72
2022/10/21 11:37:48;;;;;;;17.33;13.20;;;15.90;99.90;;;;;;5048157;28;20144;-72
2022/10/21 11:40:38;;;;;;;17.52;12.52;;;16.00;99.90;;;;;;5066290;28;20059;-72
2022/10/21 11:43:18;;;;;;;18.33;12.32;;;16.00;99.90;;;;;;5044854;28;20052;-73
2022/10/21 11:45:59;;;;;;;15.15;12.25;;;16.00;99.90;;;;;;5064194;28;20496;-72
2022/10/21 11:48:36;;;;;;;17.45;13.50;;;16.00;99.90;;;;;;5045259;28;20395;-73
2022/10/21 11:51:26;;;;;;;14.82;12.57;;;16.10;99.90;;;;;;5045652;28;20071;-72
2022/10/21 11:53:57;;;;;;;21.02;12.70;;;16.00;99.90;;;;;;5045481;28;20056;-73
2022/10/21 11:56:41;;;;;;;17.42;12.18;;;16.10;99.90;;;;;;5066199;28;20079;-72
2022/10/21 11:59:18;;;;;;;15.63;12.85;;;16.10;99.90;;;;;;5064060;28;20426;-73
2022/10/21 12:02:07;;;;;;;16.50;12.52;;;16.10;99.90;;;;;;5063925;28;20052;-73
2022/10/21 12:04:44;;;;;;;17.77;12.45;;;16.10;99.90;;;;;;5052375;28;20044;-75
2022/10/21 12:07:23;;;;;;;18.58;12.88;;;16.20;99.90;;;;;;5060883;28;20044;-81
2022/10/21 12:09:55;;;;;;;19.63;12.82;;;16.20;99.90;;;;;;5045964;28;20041;-81
2022/10/21 12:12:33;;;;;;;17.98;12.93;;;16.20;99.90;;;;;;5065998;28;20048;-74
2022/10/21 12:15:02;;;;;;;15.75;12.70;;;16.20;99.90;;;;;;5057500;28;20063;-72
2022/10/21 12:17:31;;;;;;;18.83;12.50;;;16.20;99.90;;;;;;5048668;28;20141;-73
2022/10/21 12:20:02;;;;;;;17.83;12.05;;;16.20;99.90;;;;;;5067043;28;20062;-73
2022/10/21 12:22:30;;;;;;;15.02;12.05;;;16.20;99.90;;;;;;5048525;28;20475;-73
2022/10/21 12:25:42;;;;;;;16.35;11.98;;;16.20;99.90;;;;;;5066425;28;20059;-73
2022/10/21 12:28:14;;;;;;;17.92;11.18;;;16.20;99.90;;;;;;5066288;28;20080;-73
2022/10/21 12:30:59;;;;;;;17.88;11.45;;;16.20;99.90;;;;;;5066315;28;20115;-72
2022/10/21 12:33:38;;;;;;;21.20;10.63;;;16.20;99.90;;;;;;5069114;28;20040;-73
2022/10/21 12:36:24;;;;;;;17.20;10.40;;;16.30;99.90;;;;;;5071240;28;20063;-73
2022/10/21 12:38:55;;;;;;;13.88;9.75;;;16.30;99.90;;;;;;5052100;28;20036;-73
2022/10/21 12:41:28;;;;;;;13.63;8.98;;;16.40;99.90;;;;;;5071277;28;20488;-73
2022/10/21 12:43:59;;;;;;;16.35;8.45;;;16.40;99.90;;;;;;5070179;28;20049;-73
2022/10/21 12:46:32;;;;;;;19.02;9.32;;;16.40;99.90;;;;;;5065054;28;20045;-73